Detalii statie BARBIERU PROD [00001CE8]

Toti senzorii

Date Temperatura solului [C]Precipitatii [mm]Voltaj baterie [mV]Leaf Wetness [Min]HC Air temperature [C]HC Relative humidity [%]Punctul de roua [C]
medieminmaxsumaultimatimpmedieminmaxmediemediemin
2017-08-14 20:00:00 25.2 25.1 25.4 0 6962 21.13 21.06 21.23 73.74 16.1 16
2017-08-14 21:00:00 25 24.8 25.1 0 6922 20.88 20.58 21.15 73.76 15.8 15.5
2017-08-14 22:00:00 24.8 24.6 25 0 6914 20.52 20.38 20.7 73.2 15.3 15.3
2017-08-14 23:00:00 24.6 24.5 24.7 0 6904 20.3 20.15 20.51 74.85 15.5 15.3
2017-08-15 00:00:00 24.3 24.3 24.5 0 6894 19.97 19.51 20.68 79.6 16.1 15.7
2017-08-15 01:00:00 24.2 24 24.4 0 6884 19.94 19.72 20.11 77.54 15.7 15.4
2017-08-15 02:00:00 23.9 23.8 24 0 6874 19.86 19.45 20.27 74.72 15.1 14.9
2017-08-15 03:00:00 23.8 23.7 23.9 0 6874 19.26 18.91 19.47 75.63 14.7 14.6
2017-08-15 04:00:00 23.5 23.5 23.8 0 6854 19.28 19.09 19.48 74.8 14.5 14.4
2017-08-15 05:00:00 23.3 23.2 23.4 0 6844 18.95 18.7 19.46 74.26 14.1 13.9
2017-08-15 06:00:00 23.1 23.1 23.3 0 6844 18.95 18.58 19.65 73.09 13.9 13.8
2017-08-15 07:00:00 23 22.9 23.1 0 6962 20.48 19.75 21.28 66.14 13.8 13.6
2017-08-15 08:00:00 22.8 22.8 23 0 7050 21.7 21.45 22.14 63.15 14.2 13.8
2017-08-15 09:00:00 22.8 22.6 22.9 0 7226 22.44 21.83 23.85 63.24 14.9 14.4
2017-08-15 10:00:00 22.9 22.8 23.1 0 7254 24.43 23.91 24.96 58.73 15.6 15.1
2017-08-15 11:00:00 23.1 22.9 23.3 0 7254 23.87 23.22 25.34 60.13 15.4 15
2017-08-15 12:00:00 23.4 23.2 23.6 0 7254 25.89 25.25 26.5 55.63 16.2 15.9
2017-08-15 13:00:00 23.7 23.5 23.9 0 7254 27 26.04 27.5 53.44 16.5 16
2017-08-15 14:00:00 24.2 24 24.6 0 7254 26.41 25.46 27.28 55.17 16.5 16
2017-08-15 15:00:00 24.8 24.5 25.1 0 7254 27.47 25.61 28.36 54.73 17.3 16.7
2017-08-15 16:00:00 25.3 25.1 25.5 0 7246 27.15 26.67 28.06 56.18 17.5 17
2017-08-15 17:00:00 25.6 25.5 25.9 0 7254 27.33 26.68 28.38 57.97 18.1 17.6
2017-08-15 18:00:00 25.8 25.8 26 0 7236 28.21 27.6 28.79 57.18 18.7 18.4
2017-08-15 19:00:00 25.9 25.9 26.1 0 6992 27.3 26.73 27.8 59.12 18.4 17.8
2017-08-15 20:00:00 25.9 25.8 26.1 0 6922 25.98 25.61 26.58 62 17.9 17.7
2017-08-15 21:00:00 25.8 25.6 26.1 0 6914 25.28 24.92 25.76 63.87 17.7 17.6
2017-08-15 22:00:00 25.6 25.5 25.8 0 6904 24.24 23.35 24.83 66.67 17.4 17.3
2017-08-15 23:00:00 25.4 25.2 25.6 0 6894 22.7 21.99 23.18 71.83 17.2 17.1
2017-08-16 00:00:00 25.1 25.1 25.4 0 6884 21.7 21.36 22.01 75.78 17.1 16.8
2017-08-16 01:00:00 24.9 24.8 25.1 0 6874 20.65 20.15 21.52 80.13 16.9 16.8
2017-08-16 02:00:00 24.7 24.5 24.9 0 6874 20.87 20.57 21.12 77 16.5 16.1
2017-08-16 03:00:00 24.4 24.3 24.6 0 6864 20.25 19.76 20.52 76.74 15.8 15.7
2017-08-16 04:00:00 24.2 24.1 24.4 0 6854 18.94 17.58 19.65 84.01 16 15.7
2017-08-16 05:00:00 23.9 23.9 24.1 0 6844 17.23 16.83 17.59 95.29 16.3 16.2
2017-08-16 06:00:00 23.7 23.6 23.9 0 6844 16.87 16.55 17.55 99.87 16.7 16.3
2017-08-16 07:00:00 23.5 23.4 23.6 0 6914 19.6 17.74 21.77 93.72 18.3 17.7
2017-08-16 08:00:00 23.3 23.2 23.5 0 6992 22.92 21.97 23.91 77.88 18.7 18.3
2017-08-16 09:00:00 23.3 23.1 23.4 0 7196 24.33 22.87 26.86 72.53 18.8 18.3
2017-08-16 10:00:00 23.3 23.2 23.5 0 7246 26.96 26.01 28.16 64.08 19.4 18.8
2017-08-16 11:00:00 23.6 23.4 23.8 0 7254 26.58 25.4 29.26 65.43 19.4 18.8
2017-08-16 12:00:00 23.9 23.7 24.2 0 7246 29.42 28.65 30.06 52.81 18.5 17.9
2017-08-16 13:00:00 24.4 24 24.7 0 7246 30.95 30.45 31.43 46.87 18 17.1
2017-08-16 14:00:00 25 24.7 25.4 0 7254 31.61 31.2 31.97 44.12 17.6 16.8
2017-08-16 15:00:00 25.6 25.2 25.9 0 7246 32 31.76 32.35 39.49 16.2 15.6
2017-08-16 16:00:00 26.1 25.9 26.5 0 7246 32 30.78 33.11 38.42 15.8 14.8
2017-08-16 17:00:00 26.5 26.3 26.7 0 7254 31.12 30.22 31.82 38.75 15.1 13.8
2017-08-16 18:00:00 26.7 26.7 26.9 0 7166 28.8 26.94 30.12 43.72 14.9 14.5
2017-08-16 19:00:00 26.7 26.6 26.9 0 6992 24.36 22.67 26.52 64.95 17.1 16.2